createdAt,value
2019-05-02T00:03:05.800Z,37.17
2019-05-02T00:08:00.048Z,36.97
2019-05-02T00:12:54.216Z,39.10
2019-05-02T00:17:48.188Z,37.33
2019-05-02T00:22:42.195Z,38.23
2019-05-02T00:27:37.663Z,38.07
2019-05-02T00:32:32.131Z,38.20
2019-05-02T00:37:26.700Z,36.63
2019-05-02T00:42:22.643Z,37.77
2019-05-02T00:47:21.401Z,36.17
2019-05-02T00:52:15.351Z,37.60
2019-05-02T00:57:09.332Z,36.97
2019-05-02T01:02:17.287Z,35.87
2019-05-02T01:07:11.458Z,38.53
2019-05-02T01:12:08.408Z,39.07
2019-05-02T01:17:01.284Z,37.27
2019-05-02T01:21:55.309Z,37.03
2019-05-02T01:26:51.297Z,38.43
2019-05-02T01:31:54.654Z,38.10
2019-05-02T01:36:50.978Z,36.17
2019-05-02T01:41:44.928Z,35.67
2019-05-02T01:46:38.902Z,36.50
2019-05-02T01:51:32.983Z,38.53
2019-05-02T01:56:28.514Z,38.30
2019-05-02T02:01:23.360Z,36.37
2019-05-02T02:06:17.360Z,36.03
2019-05-02T02:11:11.368Z,37.37
2019-05-02T02:16:05.938Z,35.60
2019-05-02T02:21:02.316Z,35.57
2019-05-02T02:26:01.295Z,36.40
2019-05-02T02:30:57.842Z,36.30
2019-05-02T02:35:52.262Z,35.87
2019-05-02T02:40:46.202Z,35.37
2019-05-02T02:45:51.708Z,36.40
2019-05-02T02:50:46.044Z,36.03
2019-05-02T02:55:39.997Z,36.70
2019-05-02T03:00:34.568Z,36.07
2019-05-02T03:05:28.763Z,37.40
2019-05-02T03:10:22.740Z,36.20
2019-05-02T03:15:20.898Z,37.50
2019-05-02T03:20:14.617Z,34.70
2019-05-02T03:25:10.500Z,34.83
2019-05-02T03:30:04.753Z,35.67
2019-05-02T03:34:58.870Z,34.43
2019-05-02T03:39:57.179Z,35.93
2019-05-02T03:44:54.658Z,35.00
2019-05-02T03:49:48.948Z,34.80
2019-05-02T03:54:49.034Z,34.83
2019-05-02T03:59:39.376Z,34.83
2019-05-02T04:04:32.414Z,36.13
2019-05-02T04:09:38.713Z,37.73
2019-05-02T04:14:37.705Z,35.87
2019-05-02T04:19:28.673Z,35.60
2019-05-02T04:24:22.216Z,38.33
2019-05-02T04:29:16.316Z,37.17
2019-05-02T04:34:15.417Z,35.73
2019-05-02T04:39:14.993Z,37.17
2019-05-02T04:44:02.115Z,38.17
2019-05-02T04:48:58.831Z,35.83
2019-05-02T04:53:51.967Z,37.00
2019-05-02T04:58:48.984Z,35.87
2019-05-02T05:03:41.825Z,36.23
2019-05-02T05:08:35.779Z,35.80
2019-05-02T05:13:29.757Z,35.80
2019-05-02T05:18:23.743Z,35.43
2019-05-02T05:23:21.548Z,35.33
2019-05-02T05:28:15.477Z,32.37
2019-05-02T05:33:10.329Z,32.87
2019-05-02T05:38:04.490Z,34.40
2019-05-02T05:43:02.610Z,34.83
2019-05-02T05:47:57.586Z,34.63
2019-05-02T05:52:51.921Z,33.60
2019-05-02T05:57:47.607Z,34.17
2019-05-02T06:02:53.008Z,32.17
2019-05-02T06:07:41.912Z,33.93
2019-05-02T06:12:35.566Z,32.80
2019-05-02T06:17:30.500Z,33.23
2019-05-02T06:22:25.716Z,32.97
2019-05-02T06:27:20.768Z,31.10
2019-05-02T06:32:19.244Z,31.40
2019-05-02T06:37:13.690Z,32.70
2019-05-02T06:42:07.496Z,31.83
2019-05-02T06:47:04.230Z,33.70
2019-05-02T06:51:57.703Z,33.67
2019-05-02T06:56:51.801Z,35.00
2019-05-02T07:01:45.879Z,34.63
2019-05-02T07:06:50.140Z,37.10
2019-05-02T07:11:38.869Z,38.73
2019-05-02T07:16:39.623Z,38.00
2019-05-02T07:21:33.579Z,35.30
2019-05-02T07:26:27.583Z,37.53
2019-05-02T07:31:21.560Z,37.17
2019-05-02T07:36:15.669Z,35.87
2019-05-02T07:41:10.014Z,35.27
2019-05-02T07:46:04.299Z,34.90
2019-05-02T07:50:58.383Z,34.60
2019-05-02T07:55:52.356Z,33.00
2019-05-02T08:00:46.327Z,28.90
2019-05-02T08:05:40.293Z,30.63
2019-05-02T08:10:34.324Z,29.03
2019-05-02T08:15:28.409Z,30.80
2019-05-02T08:20:22.510Z,28.30
2019-05-02T08:25:16.974Z,30.23
2019-05-02T08:30:13.123Z,31.40
2019-05-02T08:35:07.601Z,31.80
2019-05-02T08:40:10.037Z,31.17
2019-05-02T08:45:03.156Z,31.53
2019-05-02T08:49:57.393Z,29.07
2019-05-02T08:54:51.363Z,30.30
2019-05-02T08:59:45.331Z,30.37
2019-05-02T09:04:39.294Z,31.33
2019-05-02T09:09:33.374Z,30.10
2019-05-02T09:14:27.371Z,29.37
2019-05-02T09:19:26.295Z,29.67
2019-05-02T09:24:21.153Z,27.70
2019-05-02T09:29:13.372Z,27.27
2019-05-02T09:34:07.329Z,29.15
2019-05-02T09:39:02.655Z,29.98
2019-05-02T09:43:56.970Z,28.90
2019-05-02T09:48:51.982Z,28.40
2019-05-02T09:53:46.038Z,26.63
2019-05-02T09:58:42.054Z,27.53
2019-05-02T10:03:36.099Z,28.43
2019-05-02T10:08:32.104Z,29.20
2019-05-02T10:13:26.230Z,28.90
2019-05-02T10:18:28.325Z,27.48
2019-05-02T10:23:19.658Z,28.00
2019-05-02T10:28:12.996Z,27.20
2019-05-02T10:33:07.031Z,28.52
2019-05-02T10:38:02.520Z,27.75
2019-05-02T10:42:56.597Z,29.20
2019-05-02T10:47:52.553Z,26.25
2019-05-02T10:52:46.548Z,27.02
2019-05-02T10:57:42.084Z,25.62
2019-05-02T11:02:54.700Z,26.97
2019-05-02T11:07:48.771Z,26.23
2019-05-02T11:13:01.452Z,25.27
2019-05-02T11:17:55.998Z,25.65
2019-05-02T11:22:52.620Z,25.15
2019-05-02T11:27:45.957Z,24.72
2019-05-02T11:32:41.714Z,23.40
2019-05-02T11:37:35.838Z,25.45
2019-05-02T11:42:29.807Z,25.75
2019-05-02T11:47:26.632Z,24.87
2019-05-02T11:52:19.633Z,24.35
2019-05-02T11:57:13.772Z,25.05
2019-05-02T12:02:17.569Z,25.88
2019-05-02T12:07:05.816Z,26.05
2019-05-02T12:11:59.807Z,25.08
2019-05-02T12:16:53.821Z,25.10
2019-05-02T12:21:53.003Z,21.35
2019-05-02T12:26:47.044Z,19.92
2019-05-02T12:31:42.675Z,20.97
2019-05-02T12:36:36.850Z,20.90
2019-05-02T12:41:32.894Z,21.65
2019-05-02T12:46:28.483Z,20.05
2019-05-02T12:51:24.037Z,19.40
2019-05-02T12:56:18.209Z,20.55
2019-05-02T13:01:12.380Z,20.32
2019-05-02T13:06:06.423Z,18.17
2019-05-02T13:11:06.671Z,18.20
2019-05-02T13:16:03.550Z,15.80
2019-05-02T13:20:59.162Z,16.00
2019-05-02T13:25:53.337Z,16.50
2019-05-02T13:31:09.306Z,15.90
2019-05-02T13:36:03.699Z,15.98
2019-05-02T13:40:57.996Z,16.17
2019-05-02T13:45:54.092Z,16.15
2019-05-02T13:50:48.084Z,15.55
2019-05-02T13:55:44.269Z,15.78
2019-05-02T14:00:46.744Z,15.05
2019-05-02T14:05:49.244Z,15.25
2019-05-02T14:10:41.561Z,16.05
2019-05-02T14:15:38.178Z,15.68
2019-05-02T14:20:33.045Z,15.03
2019-05-02T14:25:27.516Z,15.70
2019-05-02T14:30:36.287Z,15.63
2019-05-02T14:35:27.816Z,17.27
2019-05-02T14:40:26.435Z,20.48
2019-05-02T14:45:30.842Z,25.20
2019-05-02T14:50:24.242Z,27.50
2019-05-02T14:55:17.024Z,29.52
2019-05-02T15:00:09.663Z,29.45
2019-05-02T15:05:05.187Z,30.43
2019-05-02T15:10:02.700Z,31.17
2019-05-02T15:14:58.675Z,30.15
2019-05-02T15:19:52.708Z,31.70
2019-05-02T15:24:46.792Z,31.60
2019-05-02T15:29:42.034Z,32.28
2019-05-02T15:34:46.237Z,33.18
2019-05-02T15:44:32.810Z,31.75
2019-05-02T15:49:27.221Z,32.17
2019-05-02T15:54:22.718Z,32.28
2019-05-02T15:59:19.509Z,33.23
2019-05-02T16:04:17.291Z,28.70
2019-05-02T16:09:11.857Z,22.25
2019-05-02T16:14:06.122Z,18.30
2019-05-02T16:19:02.160Z,21.93
2019-05-02T16:24:15.029Z,24.17
2019-05-02T16:29:10.981Z,26.10
2019-05-02T16:34:05.962Z,26.13
2019-05-02T16:39:05.210Z,25.63
2019-05-02T16:43:57.335Z,26.87
2019-05-02T16:48:52.793Z,26.03
2019-05-02T16:53:46.772Z,26.35
2019-05-02T16:58:43.384Z,24.73
2019-05-02T17:03:36.897Z,25.97
2019-05-02T17:08:54.802Z,27.33
2019-05-02T17:13:45.356Z,26.40
2019-05-02T17:18:39.402Z,28.20
2019-05-02T17:23:37.550Z,28.07
2019-05-02T17:28:31.608Z,27.90
2019-05-02T17:33:25.623Z,25.77
2019-05-02T17:38:24.953Z,26.37
2019-05-02T17:43:15.771Z,26.60
2019-05-02T17:48:15.721Z,25.20
2019-05-02T17:53:07.307Z,24.18
2019-05-02T17:58:04.513Z,24.57
2019-05-02T18:02:58.604Z,25.17
2019-05-02T18:07:52.737Z,24.43
2019-05-02T18:12:47.209Z,22.37
2019-05-02T18:17:42.903Z,22.67
2019-05-02T18:22:39.950Z,22.03
2019-05-02T18:27:33.069Z,23.77
2019-05-02T18:32:27.136Z,22.80
2019-05-02T18:37:23.147Z,22.17
2019-05-02T18:42:23.804Z,21.73
2019-05-02T18:47:20.169Z,21.97
2019-05-02T18:52:09.401Z,23.47
2019-05-02T18:57:03.628Z,22.47
2019-05-02T19:01:59.609Z,25.47
2019-05-02T19:06:53.618Z,24.40
2019-05-02T19:11:47.906Z,24.37
2019-05-02T19:16:42.652Z,25.90
2019-05-02T19:21:39.469Z,26.03
2019-05-02T19:26:33.298Z,28.53
2019-05-02T19:31:29.306Z,27.37
2019-05-02T19:36:27.387Z,26.83
2019-05-02T19:41:19.385Z,29.60
2019-05-02T19:46:13.527Z,28.57
2019-05-02T19:51:10.638Z,29.43
2019-05-02T19:56:03.620Z,29.40
2019-05-02T20:00:57.966Z,30.50
2019-05-02T20:05:52.014Z,28.47
2019-05-02T20:10:49.209Z,28.17
2019-05-02T20:15:44.236Z,28.00
2019-05-02T20:21:02.674Z,29.53
2019-05-02T20:25:56.919Z,29.17
2019-05-02T20:30:52.632Z,30.83
2019-05-02T20:35:47.005Z,27.50
2019-05-02T20:40:42.660Z,29.83
2019-05-02T20:45:36.986Z,27.87
2019-05-02T20:50:31.834Z,25.77
2019-05-02T20:55:26.018Z,25.40
2019-05-02T21:00:25.481Z,26.33
2019-05-02T21:05:23.089Z,27.07
2019-05-02T21:10:37.448Z,16.07
2019-05-02T21:15:32.353Z,13.23
2019-05-02T21:20:26.606Z,11.63
2019-05-02T21:25:23.015Z,12.20
2019-05-02T21:30:23.585Z,11.00
2019-05-02T21:35:17.549Z,10.80
2019-05-02T21:40:11.990Z,11.40
2019-05-02T21:45:06.086Z,11.53
2019-05-02T21:50:04.778Z,11.47
2019-05-02T21:55:09.613Z,11.90
2019-05-02T22:00:07.517Z,11.97
2019-05-02T22:05:04.570Z,11.60
2019-05-02T22:09:58.693Z,11.77
2019-05-02T22:14:52.934Z,11.60
2019-05-02T22:19:47.286Z,11.93
2019-05-02T22:24:42.128Z,11.53
2019-05-02T22:29:48.345Z,11.90
2019-05-02T22:34:42.602Z,12.83
2019-05-02T22:39:45.883Z,11.30
2019-05-02T22:44:41.722Z,11.43
2019-05-02T22:49:35.781Z,11.33
2019-05-02T22:54:33.341Z,11.80
2019-05-02T22:59:26.667Z,10.50
2019-05-02T23:04:23.302Z,10.63
2019-05-02T23:09:16.710Z,10.40
2019-05-02T23:14:10.788Z,10.33
2019-05-02T23:19:04.856Z,11.13
2019-05-02T23:24:01.672Z,11.50
2019-05-02T23:29:02.322Z,10.30
2019-05-02T23:33:59.225Z,10.70
2019-05-02T23:38:53.292Z,11.47
2019-05-02T23:43:47.257Z,12.00
2019-05-02T23:48:41.955Z,12.23
2019-05-02T23:53:36.234Z,12.80
2019-05-02T23:58:31.896Z,13.00
